Terminal Aerodrome Forecast
Issued by NWS Sterling, VA

Current Version | Previous Version | Graphics & Text | Print | Product List | Glossary On
Versions: 1 2 3 4 5 6 7 8 9 10 11 12 13 14 15 16 17 18 19
218
FTUS41 KLWX 290541
TAFMRB
TAF
KMRB 290541Z 2906/3006 16004KT 3SM -DZ BR OVC010
     FM290700 16004KT 3SM -DZ BR BKN008 OVC010
     FM291200 23004KT 3SM BR BKN015
     FM291300 27005KT P6SM BKN025
     FM291500 28010G18KT P6SM BKN035
     FM300100 26004KT P6SM FEW250=

USA.gov is the U.S. government's official web portal to all federal, state and local government web resources and services.